Terminal Aerodrome Forecast
Issued by NWS

Home | Current Version | Previous Version | Text Only | Print | Product List | Glossary On
Versions: 1 2 3 4 5 6 7 8 9 10 11 12 13 14 15 16 17 18 19 20 21 22 23 24 25 26 27 28 29
000
FTUS45 KBOU 180805 AAB
TAFAPA
TAF AMD
KAPA 180805Z 1808/1906 21020G30KT P6SM SKC
      TEMPO 1810/1814 18012KT P6SM FEW220
     FM181400 23014KT P6SM FEW150 SCT220
     FM181700 26018G28KT P6SM FEW140 SCT200
     FM182300 22014G23KT P6SM FEW120 BKN200
     FM190300 18011KT P6SM SCT120 BKN200=

USA.gov is the U.S. government's official web portal to all federal, state and local government web resources and services.